sensor_id;sensor_type;location;lat;lon;timestamp;temperature;humidity
59075;DHT22;44860;53.020;6.738;2023-04-03T00:00:49;4.00;99.90
59075;DHT22;44860;53.020;6.738;2023-04-03T00:03:19;4.00;99.90
59075;DHT22;44860;53.020;6.738;2023-04-03T00:05:46;4.00;99.90
59075;DHT22;44860;53.020;6.738;2023-04-03T00:08:12;3.90;99.90
59075;DHT22;44860;53.020;6.738;2023-04-03T00:10:38;3.90;99.90
59075;DHT22;44860;53.020;6.738;2023-04-03T00:13:04;3.90;99.90
59075;DHT22;44860;53.020;6.738;2023-04-03T00:15:31;3.80;99.90
59075;DHT22;44860;53.020;6.738;2023-04-03T00:17:56;3.80;99.90
59075;DHT22;44860;53.020;6.738;2023-04-03T00:20:22;3.70;99.90
59075;DHT22;44860;53.020;6.738;2023-04-03T00:22:48;3.70;99.90
59075;DHT22;44860;53.020;6.738;2023-04-03T00:25:13;3.70;99.90
59075;DHT22;44860;53.020;6.738;2023-04-03T00:27:40;3.70;99.90
59075;DHT22;44860;53.020;6.738;2023-04-03T00:30:08;3.70;99.90
59075;DHT22;44860;53.020;6.738;2023-04-03T00:32:35;3.60;99.90
59075;DHT22;44860;53.020;6.738;2023-04-03T00:35:01;3.50;99.90
59075;DHT22;44860;53.020;6.738;2023-04-03T00:37:26;3.50;99.90
59075;DHT22;44860;53.020;6.738;2023-04-03T00:39:52;3.50;99.90
59075;DHT22;44860;53.020;6.738;2023-04-03T00:42:17;3.50;99.90
59075;DHT22;44860;53.020;6.738;2023-04-03T00:47:13;3.50;99.90
59075;DHT22;44860;53.020;6.738;2023-04-03T00:49:40;3.50;99.90
59075;DHT22;44860;53.020;6.738;2023-04-03T00:52:09;3.40;99.90
59075;DHT22;44860;53.020;6.738;2023-04-03T00:54:38;3.40;99.90
59075;DHT22;44860;53.020;6.738;2023-04-03T00:57:06;3.40;99.90
59075;DHT22;44860;53.020;6.738;2023-04-03T00:59:36;3.40;99.90
59075;DHT22;44860;53.020;6.738;2023-04-03T01:02:03;3.30;99.90
59075;DHT22;44860;53.020;6.738;2023-04-03T01:04:30;3.30;99.90
59075;DHT22;44860;53.020;6.738;2023-04-03T01:06:59;3.30;99.90
59075;DHT22;44860;53.020;6.738;2023-04-03T01:09:27;3.20;99.90
59075;DHT22;44860;53.020;6.738;2023-04-03T01:11:54;3.20;99.90
59075;DHT22;44860;53.020;6.738;2023-04-03T01:14:19;3.10;99.90
59075;DHT22;44860;53.020;6.738;2023-04-03T01:16:53;3.00;99.90
59075;DHT22;44860;53.020;6.738;2023-04-03T01:19:18;3.00;99.90
59075;DHT22;44860;53.020;6.738;2023-04-03T01:24:35;3.10;99.90
59075;DHT22;44860;53.020;6.738;2023-04-03T01:27:03;3.10;99.90
59075;DHT22;44860;53.020;6.738;2023-04-03T01:29:29;3.00;99.90
59075;DHT22;44860;53.020;6.738;2023-04-03T01:32:00;2.90;99.90
59075;DHT22;44860;53.020;6.738;2023-04-03T01:34:27;2.80;99.90
59075;DHT22;44860;53.020;6.738;2023-04-03T01:36:54;2.70;99.90
59075;DHT22;44860;53.020;6.738;2023-04-03T01:39:20;2.80;99.90
59075;DHT22;44860;53.020;6.738;2023-04-03T01:41:46;2.70;99.90
59075;DHT22;44860;53.020;6.738;2023-04-03T01:44:12;2.70;99.90
59075;DHT22;44860;53.020;6.738;2023-04-03T01:46:38;2.70;99.90
59075;DHT22;44860;53.020;6.738;2023-04-03T01:49:04;2.60;99.90
59075;DHT22;44860;53.020;6.738;2023-04-03T01:51:31;2.50;99.90
59075;DHT22;44860;53.020;6.738;2023-04-03T01:53:58;2.50;99.90
59075;DHT22;44860;53.020;6.738;2023-04-03T01:56:24;2.40;99.90
59075;DHT22;44860;53.020;6.738;2023-04-03T01:58:50;2.40;99.90
59075;DHT22;44860;53.020;6.738;2023-04-03T02:01:16;2.30;99.90
59075;DHT22;44860;53.020;6.738;2023-04-03T02:03:42;2.30;99.90
59075;DHT22;44860;53.020;6.738;2023-04-03T02:06:08;2.30;99.90
59075;DHT22;44860;53.020;6.738;2023-04-03T02:08:36;2.20;99.90
59075;DHT22;44860;53.020;6.738;2023-04-03T02:11:02;2.20;99.90
59075;DHT22;44860;53.020;6.738;2023-04-03T02:13:27;2.20;99.90
59075;DHT22;44860;53.020;6.738;2023-04-03T02:15:53;2.10;99.90
59075;DHT22;44860;53.020;6.738;2023-04-03T02:18:19;2.10;99.90
59075;DHT22;44860;53.020;6.738;2023-04-03T02:20:46;2.00;99.90
59075;DHT22;44860;53.020;6.738;2023-04-03T02:23:12;2.00;99.90
59075;DHT22;44860;53.020;6.738;2023-04-03T02:25:37;2.00;99.90
59075;DHT22;44860;53.020;6.738;2023-04-03T02:28:03;1.90;99.90
59075;DHT22;44860;53.020;6.738;2023-04-03T02:30:29;1.90;99.90
59075;DHT22;44860;53.020;6.738;2023-04-03T02:32:54;1.80;99.90
59075;DHT22;44860;53.020;6.738;2023-04-03T02:35:21;1.80;99.90
59075;DHT22;44860;53.020;6.738;2023-04-03T02:37:47;1.80;99.90
59075;DHT22;44860;53.020;6.738;2023-04-03T02:40:12;1.70;99.90
59075;DHT22;44860;53.020;6.738;2023-04-03T02:42:38;1.70;99.90
59075;DHT22;44860;53.020;6.738;2023-04-03T02:45:04;1.60;99.90
59075;DHT22;44860;53.020;6.738;2023-04-03T02:47:30;1.60;99.90
59075;DHT22;44860;53.020;6.738;2023-04-03T02:49:56;1.60;99.90
59075;DHT22;44860;53.020;6.738;2023-04-03T02:52:21;1.50;99.90
59075;DHT22;44860;53.020;6.738;2023-04-03T02:54:47;1.50;99.90
59075;DHT22;44860;53.020;6.738;2023-04-03T02:57:13;1.50;99.90
59075;DHT22;44860;53.020;6.738;2023-04-03T02:59:39;1.50;99.90
59075;DHT22;44860;53.020;6.738;2023-04-03T03:02:07;1.50;99.90
59075;DHT22;44860;53.020;6.738;2023-04-03T03:04:36;1.50;99.90
59075;DHT22;44860;53.020;6.738;2023-04-03T03:07:02;1.40;99.90
59075;DHT22;44860;53.020;6.738;2023-04-03T03:09:29;1.30;99.90
59075;DHT22;44860;53.020;6.738;2023-04-03T03:11:55;1.30;99.90
59075;DHT22;44860;53.020;6.738;2023-04-03T03:14:21;1.30;99.90
59075;DHT22;44860;53.020;6.738;2023-04-03T03:16:46;1.30;99.90
59075;DHT22;44860;53.020;6.738;2023-04-03T03:19:12;1.30;99.90
59075;DHT22;44860;53.020;6.738;2023-04-03T03:21:38;1.20;99.90
59075;DHT22;44860;53.020;6.738;2023-04-03T03:24:04;1.10;99.90
59075;DHT22;44860;53.020;6.738;2023-04-03T03:26:30;1.10;99.90
59075;DHT22;44860;53.020;6.738;2023-04-03T03:28:56;1.00;99.90
59075;DHT22;44860;53.020;6.738;2023-04-03T03:31:21;1.10;99.90
59075;DHT22;44860;53.020;6.738;2023-04-03T03:33:47;1.20;99.90
59075;DHT22;44860;53.020;6.738;2023-04-03T03:36:13;1.30;99.90
59075;DHT22;44860;53.020;6.738;2023-04-03T03:38:38;1.30;99.90
59075;DHT22;44860;53.020;6.738;2023-04-03T03:41:04;1.40;99.90
59075;DHT22;44860;53.020;6.738;2023-04-03T03:43:30;1.50;99.90
59075;DHT22;44860;53.020;6.738;2023-04-03T03:45:56;1.50;99.90
59075;DHT22;44860;53.020;6.738;2023-04-03T03:48:22;1.60;99.90
59075;DHT22;44860;53.020;6.738;2023-04-03T03:50:48;1.60;99.90
59075;DHT22;44860;53.020;6.738;2023-04-03T03:53:14;1.70;99.90
59075;DHT22;44860;53.020;6.738;2023-04-03T03:55:40;1.70;99.90
59075;DHT22;44860;53.020;6.738;2023-04-03T03:58:06;1.70;99.90
59075;DHT22;44860;53.020;6.738;2023-04-03T04:00:32;1.70;99.90
59075;DHT22;44860;53.020;6.738;2023-04-03T04:02:57;1.70;99.90
59075;DHT22;44860;53.020;6.738;2023-04-03T04:05:23;1.80;99.90
59075;DHT22;44860;53.020;6.738;2023-04-03T04:07:49;1.80;99.90
59075;DHT22;44860;53.020;6.738;2023-04-03T04:10:14;1.80;99.90
59075;DHT22;44860;53.020;6.738;2023-04-03T04:12:40;1.80;99.90
59075;DHT22;44860;53.020;6.738;2023-04-03T04:15:06;1.80;99.90
59075;DHT22;44860;53.020;6.738;2023-04-03T04:17:32;1.70;99.90
59075;DHT22;44860;53.020;6.738;2023-04-03T04:19:58;1.60;99.90
59075;DHT22;44860;53.020;6.738;2023-04-03T04:22:23;1.60;99.90
59075;DHT22;44860;53.020;6.738;2023-04-03T04:24:49;1.50;99.90
59075;DHT22;44860;53.020;6.738;2023-04-03T04:27:15;1.50;99.90
59075;DHT22;44860;53.020;6.738;2023-04-03T04:29:41;1.50;99.90
59075;DHT22;44860;53.020;6.738;2023-04-03T04:32:07;1.50;99.90
59075;DHT22;44860;53.020;6.738;2023-04-03T04:34:34;1.50;99.90
59075;DHT22;44860;53.020;6.738;2023-04-03T04:37:00;1.60;99.90
59075;DHT22;44860;53.020;6.738;2023-04-03T04:39:26;1.60;99.90
59075;DHT22;44860;53.020;6.738;2023-04-03T04:41:51;1.60;99.90
59075;DHT22;44860;53.020;6.738;2023-04-03T04:44:17;1.60;99.90
59075;DHT22;44860;53.020;6.738;2023-04-03T04:46:43;1.60;99.90
59075;DHT22;44860;53.020;6.738;2023-04-03T04:49:08;1.60;99.90
59075;DHT22;44860;53.020;6.738;2023-04-03T04:51:34;1.50;99.90
59075;DHT22;44860;53.020;6.738;2023-04-03T04:54:00;1.40;99.90
59075;DHT22;44860;53.020;6.738;2023-04-03T04:56:25;1.40;99.90
59075;DHT22;44860;53.020;6.738;2023-04-03T04:58:51;1.40;99.90
59075;DHT22;44860;53.020;6.738;2023-04-03T05:01:17;1.40;99.90
59075;DHT22;44860;53.020;6.738;2023-04-03T05:03:44;1.30;99.90
59075;DHT22;44860;53.020;6.738;2023-04-03T05:06:10;1.30;99.90
59075;DHT22;44860;53.020;6.738;2023-04-03T05:08:35;1.30;99.90
59075;DHT22;44860;53.020;6.738;2023-04-03T05:11:01;1.20;99.90
59075;DHT22;44860;53.020;6.738;2023-04-03T05:13:27;1.30;99.90
59075;DHT22;44860;53.020;6.738;2023-04-03T05:15:52;1.20;99.90
59075;DHT22;44860;53.020;6.738;2023-04-03T05:18:18;1.20;99.90
59075;DHT22;44860;53.020;6.738;2023-04-03T05:20:44;1.20;99.90
59075;DHT22;44860;53.020;6.738;2023-04-03T05:23:10;1.10;99.90
59075;DHT22;44860;53.020;6.738;2023-04-03T05:25:39;1.10;99.90
59075;DHT22;44860;53.020;6.738;2023-04-03T05:28:06;1.10;99.90
59075;DHT22;44860;53.020;6.738;2023-04-03T05:30:32;1.10;99.90
59075;DHT22;44860;53.020;6.738;2023-04-03T05:32:58;1.10;99.90
59075;DHT22;44860;53.020;6.738;2023-04-03T05:35:24;1.10;99.90
59075;DHT22;44860;53.020;6.738;2023-04-03T05:37:50;1.20;99.90
59075;DHT22;44860;53.020;6.738;2023-04-03T05:40:16;1.20;99.90
59075;DHT22;44860;53.020;6.738;2023-04-03T05:42:42;1.20;99.90
59075;DHT22;44860;53.020;6.738;2023-04-03T05:45:07;1.20;99.90
59075;DHT22;44860;53.020;6.738;2023-04-03T05:47:36;1.20;99.90
59075;DHT22;44860;53.020;6.738;2023-04-03T05:50:02;1.20;99.90
59075;DHT22;44860;53.020;6.738;2023-04-03T05:52:30;1.20;99.90
59075;DHT22;44860;53.020;6.738;2023-04-03T05:54:58;1.30;99.90
59075;DHT22;44860;53.020;6.738;2023-04-03T05:57:23;1.30;99.90
59075;DHT22;44860;53.020;6.738;2023-04-03T05:59:49;1.30;99.90
59075;DHT22;44860;53.020;6.738;2023-04-03T06:02:18;1.40;99.90
59075;DHT22;44860;53.020;6.738;2023-04-03T06:04:44;1.30;99.90
59075;DHT22;44860;53.020;6.738;2023-04-03T06:07:16;1.30;99.90
59075;DHT22;44860;53.020;6.738;2023-04-03T06:09:42;1.30;99.90
59075;DHT22;44860;53.020;6.738;2023-04-03T06:12:09;1.30;99.90
59075;DHT22;44860;53.020;6.738;2023-04-03T06:14:35;1.40;99.90
59075;DHT22;44860;53.020;6.738;2023-04-03T06:17:01;1.40;99.90
59075;DHT22;44860;53.020;6.738;2023-04-03T06:19:27;1.40;99.90
59075;DHT22;44860;53.020;6.738;2023-04-03T06:21:54;1.40;99.90
59075;DHT22;44860;53.020;6.738;2023-04-03T06:24:20;1.40;99.90
59075;DHT22;44860;53.020;6.738;2023-04-03T06:26:47;1.40;99.90
59075;DHT22;44860;53.020;6.738;2023-04-03T06:29:13;1.40;99.90
59075;DHT22;44860;53.020;6.738;2023-04-03T06:31:39;1.40;99.90
59075;DHT22;44860;53.020;6.738;2023-04-03T06:34:05;1.40;99.90
59075;DHT22;44860;53.020;6.738;2023-04-03T06:36:33;1.40;99.90
59075;DHT22;44860;53.020;6.738;2023-04-03T06:39:00;1.50;99.90
59075;DHT22;44860;53.020;6.738;2023-04-03T06:41:25;1.50;99.90
59075;DHT22;44860;53.020;6.738;2023-04-03T06:43:52;1.50;99.90
59075;DHT22;44860;53.020;6.738;2023-04-03T06:46:20;1.60;99.90
59075;DHT22;44860;53.020;6.738;2023-04-03T06:48:47;1.60;99.90
59075;DHT22;44860;53.020;6.738;2023-04-03T06:51:20;1.60;99.90
59075;DHT22;44860;53.020;6.738;2023-04-03T06:53:47;1.60;99.90
59075;DHT22;44860;53.020;6.738;2023-04-03T06:56:13;1.70;99.90
59075;DHT22;44860;53.020;6.738;2023-04-03T06:58:39;1.70;99.90
59075;DHT22;44860;53.020;6.738;2023-04-03T07:01:06;1.80;99.90
59075;DHT22;44860;53.020;6.738;2023-04-03T07:03:31;1.80;99.90
59075;DHT22;44860;53.020;6.738;2023-04-03T07:05:57;1.80;99.90
59075;DHT22;44860;53.020;6.738;2023-04-03T07:08:23;1.90;99.90
59075;DHT22;44860;53.020;6.738;2023-04-03T07:10:49;1.90;99.90
59075;DHT22;44860;53.020;6.738;2023-04-03T07:13:15;1.90;99.90
59075;DHT22;44860;53.020;6.738;2023-04-03T07:15:41;2.00;99.90
59075;DHT22;44860;53.020;6.738;2023-04-03T07:18:07;2.00;99.90
59075;DHT22;44860;53.020;6.738;2023-04-03T07:20:32;2.00;99.90
59075;DHT22;44860;53.020;6.738;2023-04-03T07:22:58;2.10;99.90
59075;DHT22;44860;53.020;6.738;2023-04-03T07:25:25;2.10;99.90
59075;DHT22;44860;53.020;6.738;2023-04-03T07:27:50;2.20;99.90
59075;DHT22;44860;53.020;6.738;2023-04-03T07:30:16;2.20;99.90
59075;DHT22;44860;53.020;6.738;2023-04-03T07:32:42;2.30;99.90
59075;DHT22;44860;53.020;6.738;2023-04-03T07:35:08;2.30;99.90
59075;DHT22;44860;53.020;6.738;2023-04-03T07:37:33;2.40;99.90
59075;DHT22;44860;53.020;6.738;2023-04-03T07:39:59;2.50;99.90
59075;DHT22;44860;53.020;6.738;2023-04-03T07:42:26;2.50;99.90
59075;DHT22;44860;53.020;6.738;2023-04-03T07:44:53;2.60;99.90
59075;DHT22;44860;53.020;6.738;2023-04-03T07:47:19;2.60;99.90
59075;DHT22;44860;53.020;6.738;2023-04-03T07:49:46;2.70;99.90
59075;DHT22;44860;53.020;6.738;2023-04-03T07:52:12;2.80;99.90
59075;DHT22;44860;53.020;6.738;2023-04-03T07:54:40;2.90;99.90
59075;DHT22;44860;53.020;6.738;2023-04-03T07:57:05;3.00;99.90
59075;DHT22;44860;53.020;6.738;2023-04-03T07:59:32;3.00;99.90
59075;DHT22;44860;53.020;6.738;2023-04-03T08:01:57;3.10;99.90
59075;DHT22;44860;53.020;6.738;2023-04-03T08:04:23;3.20;99.90
59075;DHT22;44860;53.020;6.738;2023-04-03T08:06:50;3.30;99.90
59075;DHT22;44860;53.020;6.738;2023-04-03T08:09:16;3.40;99.90
59075;DHT22;44860;53.020;6.738;2023-04-03T08:11:42;3.40;99.90
59075;DHT22;44860;53.020;6.738;2023-04-03T08:14:07;3.50;99.90
59075;DHT22;44860;53.020;6.738;2023-04-03T08:16:33;3.60;99.90
59075;DHT22;44860;53.020;6.738;2023-04-03T08:18:59;3.70;99.90
59075;DHT22;44860;53.020;6.738;2023-04-03T08:21:24;3.70;99.90
59075;DHT22;44860;53.020;6.738;2023-04-03T08:23:51;3.80;99.90
59075;DHT22;44860;53.020;6.738;2023-04-03T08:26:20;3.90;99.90
59075;DHT22;44860;53.020;6.738;2023-04-03T08:28:47;4.00;99.90
59075;DHT22;44860;53.020;6.738;2023-04-03T08:31:16;4.10;99.90
59075;DHT22;44860;53.020;6.738;2023-04-03T08:33:42;4.20;99.90
59075;DHT22;44860;53.020;6.738;2023-04-03T08:36:17;4.30;99.90
59075;DHT22;44860;53.020;6.738;2023-04-03T08:38:43;4.40;99.90
59075;DHT22;44860;53.020;6.738;2023-04-03T08:44:47;4.60;99.90
59075;DHT22;44860;53.020;6.738;2023-04-03T08:49:42;4.70;99.90
59075;DHT22;44860;53.020;6.738;2023-04-03T08:54:57;4.90;99.90
59075;DHT22;44860;53.020;6.738;2023-04-03T08:57:35;4.90;99.90
59075;DHT22;44860;53.020;6.738;2023-04-03T09:00:19;5.00;99.90
59075;DHT22;44860;53.020;6.738;2023-04-03T09:02:54;5.10;99.90
59075;DHT22;44860;53.020;6.738;2023-04-03T09:05:32;5.10;99.90
59075;DHT22;44860;53.020;6.738;2023-04-03T09:08:22;5.20;99.90
59075;DHT22;44860;53.020;6.738;2023-04-03T09:10:50;5.30;99.90
59075;DHT22;44860;53.020;6.738;2023-04-03T09:13:35;5.40;99.90
59075;DHT22;44860;53.020;6.738;2023-04-03T09:16:18;5.50;99.90
59075;DHT22;44860;53.020;6.738;2023-04-03T09:18:51;5.50;99.90
59075;DHT22;44860;53.020;6.738;2023-04-03T09:21:28;5.60;99.90
59075;DHT22;44860;53.020;6.738;2023-04-03T09:23:59;5.70;99.90
59075;DHT22;44860;53.020;6.738;2023-04-03T09:26:29;5.80;99.90
59075;DHT22;44860;53.020;6.738;2023-04-03T09:28:58;5.90;99.90
59075;DHT22;44860;53.020;6.738;2023-04-03T09:31:29;6.00;99.90
59075;DHT22;44860;53.020;6.738;2023-04-03T09:34:02;6.00;99.90
59075;DHT22;44860;53.020;6.738;2023-04-03T09:37:01;6.10;99.90
59075;DHT22;44860;53.020;6.738;2023-04-03T09:39:54;6.20;99.90
59075;DHT22;44860;53.020;6.738;2023-04-03T09:42:23;6.30;99.90
59075;DHT22;44860;53.020;6.738;2023-04-03T09:44:58;6.50;99.90
59075;DHT22;44860;53.020;6.738;2023-04-03T09:47:27;6.50;99.90
59075;DHT22;44860;53.020;6.738;2023-04-03T09:52:38;6.60;99.90
59075;DHT22;44860;53.020;6.738;2023-04-03T09:55:17;6.70;99.90
59075;DHT22;44860;53.020;6.738;2023-04-03T09:57:47;6.80;97.20
59075;DHT22;44860;53.020;6.738;2023-04-03T10:00:36;6.90;97.30
59075;DHT22;44860;53.020;6.738;2023-04-03T10:03:02;6.90;94.10
59075;DHT22;44860;53.020;6.738;2023-04-03T10:05:38;7.00;95.00
59075;DHT22;44860;53.020;6.738;2023-04-03T10:08:20;7.10;93.40
59075;DHT22;44860;53.020;6.738;2023-04-03T10:10:48;7.10;91.00
59075;DHT22;44860;53.020;6.738;2023-04-03T10:13:18;7.20;91.00
59075;DHT22;44860;53.020;6.738;2023-04-03T10:15:51;7.40;90.10
59075;DHT22;44860;53.020;6.738;2023-04-03T10:23:50;7.50;86.00
59075;DHT22;44860;53.020;6.738;2023-04-03T10:27:26;7.60;86.50
59075;DHT22;44860;53.020;6.738;2023-04-03T10:32:24;7.80;87.50
59075;DHT22;44860;53.020;6.738;2023-04-03T10:43:09;8.10;79.40
59075;DHT22;44860;53.020;6.738;2023-04-03T10:46:00;8.20;79.60
59075;DHT22;44860;53.020;6.738;2023-04-03T10:51:29;8.40;81.50
59075;DHT22;44860;53.020;6.738;2023-04-03T10:54:41;8.40;79.90
59075;DHT22;44860;53.020;6.738;2023-04-03T10:57:05;8.50;79.80
59075;DHT22;44860;53.020;6.738;2023-04-03T10:59:51;8.60;81.10
59075;DHT22;44860;53.020;6.738;2023-04-03T11:02:22;8.60;77.20
59075;DHT22;44860;53.020;6.738;2023-04-03T11:04:53;8.70;72.20
59075;DHT22;44860;53.020;6.738;2023-04-03T11:07:23;8.80;71.00
59075;DHT22;44860;53.020;6.738;2023-04-03T11:09:54;8.90;68.80
59075;DHT22;44860;53.020;6.738;2023-04-03T11:12:59;9.00;69.50
59075;DHT22;44860;53.020;6.738;2023-04-03T11:15:29;9.10;66.30
59075;DHT22;44860;53.020;6.738;2023-04-03T11:18:25;9.10;65.80
59075;DHT22;44860;53.020;6.738;2023-04-03T11:21:15;9.20;64.10
59075;DHT22;44860;53.020;6.738;2023-04-03T11:23:41;9.30;63.30
59075;DHT22;44860;53.020;6.738;2023-04-03T11:26:19;9.30;65.60
59075;DHT22;44860;53.020;6.738;2023-04-03T11:28:46;9.30;62.80
59075;DHT22;44860;53.020;6.738;2023-04-03T11:31:19;9.40;64.20
59075;DHT22;44860;53.020;6.738;2023-04-03T11:34:11;9.40;63.30
59075;DHT22;44860;53.020;6.738;2023-04-03T11:36:47;9.50;65.10
59075;DHT22;44860;53.020;6.738;2023-04-03T11:39:24;9.50;64.90
59075;DHT22;44860;53.020;6.738;2023-04-03T11:41:51;9.60;64.00
59075;DHT22;44860;53.020;6.738;2023-04-03T11:47:00;9.70;64.50
59075;DHT22;44860;53.020;6.738;2023-04-03T11:49:57;9.80;62.90
59075;DHT22;44860;53.020;6.738;2023-04-03T12:19:27;10.60;54.60
59075;DHT22;44860;53.020;6.738;2023-04-03T12:24:26;10.60;54.20
59075;DHT22;44860;53.020;6.738;2023-04-03T12:29:53;10.70;54.20
59075;DHT22;44860;53.020;6.738;2023-04-03T12:32:25;10.80;56.10
59075;DHT22;44860;53.020;6.738;2023-04-03T12:46:22;11.20;51.60
59075;DHT22;44860;53.020;6.738;2023-04-03T12:48:52;11.20;51.80
59075;DHT22;44860;53.020;6.738;2023-04-03T12:51:29;11.30;50.80
59075;DHT22;44860;53.020;6.738;2023-04-03T12:54:02;11.30;50.60
59075;DHT22;44860;53.020;6.738;2023-04-03T12:56:32;11.30;50.40
59075;DHT22;44860;53.020;6.738;2023-04-03T12:59:23;11.40;49.20
59075;DHT22;44860;53.020;6.738;2023-04-03T13:02:00;11.40;50.20
59075;DHT22;44860;53.020;6.738;2023-04-03T13:04:31;11.50;49.90
59075;DHT22;44860;53.020;6.738;2023-04-03T13:06:57;11.60;48.10
59075;DHT22;44860;53.020;6.738;2023-04-03T13:09:29;11.60;48.70
59075;DHT22;44860;53.020;6.738;2023-04-03T13:12:02;11.60;46.20
59075;DHT22;44860;53.020;6.738;2023-04-03T13:14:29;11.70;47.10
59075;DHT22;44860;53.020;6.738;2023-04-03T13:17:04;11.70;47.20
59075;DHT22;44860;53.020;6.738;2023-04-03T13:19:30;11.70;46.80
59075;DHT22;44860;53.020;6.738;2023-04-03T13:22:05;11.80;46.20
59075;DHT22;44860;53.020;6.738;2023-04-03T13:24:35;11.80;46.00
59075;DHT22;44860;53.020;6.738;2023-04-03T13:27:02;11.80;46.20
59075;DHT22;44860;53.020;6.738;2023-04-03T13:29:32;11.90;44.70
59075;DHT22;44860;53.020;6.738;2023-04-03T13:32:00;12.00;44.10
59075;DHT22;44860;53.020;6.738;2023-04-03T13:34:29;12.00;43.70
59075;DHT22;44860;53.020;6.738;2023-04-03T13:37:00;12.00;43.80
59075;DHT22;44860;53.020;6.738;2023-04-03T13:39:29;12.10;43.80
59075;DHT22;44860;53.020;6.738;2023-04-03T13:41:57;12.10;43.10
59075;DHT22;44860;53.020;6.738;2023-04-03T13:44:35;12.10;41.50
59075;DHT22;44860;53.020;6.738;2023-04-03T13:47:19;12.20;42.00
59075;DHT22;44860;53.020;6.738;2023-04-03T13:52:54;12.40;41.20
59075;DHT22;44860;53.020;6.738;2023-04-03T13:55:28;12.50;39.30
59075;DHT22;44860;53.020;6.738;2023-04-03T14:05:52;12.60;37.80
59075;DHT22;44860;53.020;6.738;2023-04-03T14:08:19;12.60;36.30
59075;DHT22;44860;53.020;6.738;2023-04-03T14:10:45;12.60;36.40
59075;DHT22;44860;53.020;6.738;2023-04-03T14:13:17;12.70;37.00
59075;DHT22;44860;53.020;6.738;2023-04-03T14:15:44;12.70;37.40
59075;DHT22;44860;53.020;6.738;2023-04-03T14:18:13;12.70;37.80
59075;DHT22;44860;53.020;6.738;2023-04-03T14:20:39;12.80;37.30
59075;DHT22;44860;53.020;6.738;2023-04-03T14:23:05;12.80;36.90
59075;DHT22;44860;53.020;6.738;2023-04-03T14:25:31;12.80;36.70
59075;DHT22;44860;53.020;6.738;2023-04-03T14:27:57;12.90;35.30
59075;DHT22;44860;53.020;6.738;2023-04-03T14:30:32;12.90;34.70
59075;DHT22;44860;53.020;6.738;2023-04-03T14:32:58;12.90;35.50
59075;DHT22;44860;53.020;6.738;2023-04-03T14:35:25;12.90;37.70
59075;DHT22;44860;53.020;6.738;2023-04-03T14:37:52;12.90;36.50
59075;DHT22;44860;53.020;6.738;2023-04-03T14:40:24;13.00;34.70
59075;DHT22;44860;53.020;6.738;2023-04-03T14:42:50;13.00;33.20
59075;DHT22;44860;53.020;6.738;2023-04-03T14:45:17;13.00;32.50
59075;DHT22;44860;53.020;6.738;2023-04-03T14:47:52;13.00;33.10
59075;DHT22;44860;53.020;6.738;2023-04-03T14:50:23;13.00;32.90
59075;DHT22;44860;53.020;6.738;2023-04-03T14:52:52;13.00;32.80
59075;DHT22;44860;53.020;6.738;2023-04-03T14:55:21;13.00;34.50
59075;DHT22;44860;53.020;6.738;2023-04-03T14:57:47;13.10;32.90
59075;DHT22;44860;53.020;6.738;2023-04-03T15:00:18;13.10;33.30
59075;DHT22;44860;53.020;6.738;2023-04-03T15:02:44;13.00;33.50
59075;DHT22;44860;53.020;6.738;2023-04-03T15:05:11;13.10;33.80
59075;DHT22;44860;53.020;6.738;2023-04-03T15:07:44;13.00;33.10
59075;DHT22;44860;53.020;6.738;2023-04-03T15:10:25;13.10;33.50
59075;DHT22;44860;53.020;6.738;2023-04-03T15:12:52;13.10;33.50
59075;DHT22;44860;53.020;6.738;2023-04-03T15:15:20;13.00;34.40
59075;DHT22;44860;53.020;6.738;2023-04-03T15:17:47;13.10;33.50
59075;DHT22;44860;53.020;6.738;2023-04-03T15:20:15;13.10;33.20
59075;DHT22;44860;53.020;6.738;2023-04-03T15:22:41;13.10;30.80
59075;DHT22;44860;53.020;6.738;2023-04-03T15:25:08;13.10;30.50
59075;DHT22;44860;53.020;6.738;2023-04-03T15:27:34;13.10;30.70
59075;DHT22;44860;53.020;6.738;2023-04-03T15:30:00;13.10;30.20
59075;DHT22;44860;53.020;6.738;2023-04-03T15:32:26;13.10;30.00
59075;DHT22;44860;53.020;6.738;2023-04-03T15:34:51;13.10;29.80
59075;DHT22;44860;53.020;6.738;2023-04-03T15:37:18;13.10;29.10
59075;DHT22;44860;53.020;6.738;2023-04-03T15:39:44;13.10;29.50
59075;DHT22;44860;53.020;6.738;2023-04-03T15:42:10;13.10;29.80
59075;DHT22;44860;53.020;6.738;2023-04-03T15:44:37;13.10;30.60
59075;DHT22;44860;53.020;6.738;2023-04-03T15:47:03;13.10;29.90
59075;DHT22;44860;53.020;6.738;2023-04-03T15:49:31;13.00;29.30
59075;DHT22;44860;53.020;6.738;2023-04-03T15:51:57;13.00;29.60
59075;DHT22;44860;53.020;6.738;2023-04-03T15:54:24;13.00;29.80
59075;DHT22;44860;53.020;6.738;2023-04-03T15:56:51;13.10;30.00
59075;DHT22;44860;53.020;6.738;2023-04-03T15:59:16;13.10;30.00
59075;DHT22;44860;53.020;6.738;2023-04-03T16:01:43;13.10;30.20
59075;DHT22;44860;53.020;6.738;2023-04-03T16:04:09;13.10;30.40
59075;DHT22;44860;53.020;6.738;2023-04-03T16:06:36;13.10;30.00
59075;DHT22;44860;53.020;6.738;2023-04-03T16:09:02;13.00;30.70
59075;DHT22;44860;53.020;6.738;2023-04-03T16:11:28;13.10;31.20
59075;DHT22;44860;53.020;6.738;2023-04-03T16:13:54;13.10;30.60
59075;DHT22;44860;53.020;6.738;2023-04-03T16:16:20;13.10;30.10
59075;DHT22;44860;53.020;6.738;2023-04-03T16:18:47;13.10;30.50
59075;DHT22;44860;53.020;6.738;2023-04-03T16:21:14;13.20;29.70
59075;DHT22;44860;53.020;6.738;2023-04-03T16:23:41;13.10;29.80
59075;DHT22;44860;53.020;6.738;2023-04-03T16:26:08;13.10;30.10
59075;DHT22;44860;53.020;6.738;2023-04-03T16:28:33;13.20;30.10
59075;DHT22;44860;53.020;6.738;2023-04-03T16:31:00;13.30;29.60
59075;DHT22;44860;53.020;6.738;2023-04-03T16:33:27;13.30;28.90
59075;DHT22;44860;53.020;6.738;2023-04-03T16:35:52;13.40;29.40
59075;DHT22;44860;53.020;6.738;2023-04-03T16:38:18;13.40;29.00
59075;DHT22;44860;53.020;6.738;2023-04-03T16:40:45;13.40;29.10
59075;DHT22;44860;53.020;6.738;2023-04-03T16:43:11;13.50;28.90
59075;DHT22;44860;53.020;6.738;2023-04-03T16:45:37;13.60;29.00
59075;DHT22;44860;53.020;6.738;2023-04-03T16:48:03;13.70;29.00
59075;DHT22;44860;53.020;6.738;2023-04-03T16:50:29;13.70;28.70
59075;DHT22;44860;53.020;6.738;2023-04-03T16:52:54;13.60;28.40
59075;DHT22;44860;53.020;6.738;2023-04-03T16:55:20;13.50;27.90
59075;DHT22;44860;53.020;6.738;2023-04-03T16:57:46;13.40;28.20
59075;DHT22;44860;53.020;6.738;2023-04-03T17:00:12;13.20;27.90
59075;DHT22;44860;53.020;6.738;2023-04-03T17:02:39;13.10;28.10
59075;DHT22;44860;53.020;6.738;2023-04-03T17:05:06;12.90;28.20
59075;DHT22;44860;53.020;6.738;2023-04-03T17:07:32;12.70;28.60
59075;DHT22;44860;53.020;6.738;2023-04-03T17:09:58;12.50;28.60
59075;DHT22;44860;53.020;6.738;2023-04-03T17:12:24;12.40;29.00
59075;DHT22;44860;53.020;6.738;2023-04-03T17:14:50;12.30;29.00
59075;DHT22;44860;53.020;6.738;2023-04-03T17:17:19;12.10;29.10
59075;DHT22;44860;53.020;6.738;2023-04-03T17:19:46;11.90;29.70
59075;DHT22;44860;53.020;6.738;2023-04-03T17:22:12;11.80;29.80
59075;DHT22;44860;53.020;6.738;2023-04-03T17:24:37;11.60;30.40